createdAt,value
2022-11-29T00:01:42.083Z,2.81
2022-11-29T00:04:10.604Z,2.73
2022-11-29T00:06:40.587Z,2.67
2022-11-29T00:09:12.269Z,2.75
2022-11-29T00:11:59.322Z,2.70
2022-11-29T00:14:28.736Z,2.64
2022-11-29T00:17:01.916Z,2.66
2022-11-29T00:19:31.042Z,2.73
2022-11-29T00:22:01.017Z,2.70
2022-11-29T00:24:31.522Z,2.71
2022-11-29T00:27:00.806Z,2.67
2022-11-29T00:29:30.438Z,2.78
2022-11-29T00:31:58.615Z,2.70
2022-11-29T00:34:26.883Z,2.63
2022-11-29T00:36:55.143Z,2.62
2022-11-29T00:39:25.110Z,2.72
2022-11-29T00:41:53.437Z,2.64
2022-11-29T00:44:21.579Z,2.64
2022-11-29T00:46:50.064Z,2.68
2022-11-29T00:49:18.670Z,2.82
2022-11-29T00:51:46.860Z,2.66
2022-11-29T00:54:15.371Z,2.79
2022-11-29T00:56:45.308Z,2.57
2022-11-29T00:59:13.540Z,2.70
2022-11-29T01:01:41.867Z,2.74
2022-11-29T01:04:10.211Z,2.73
2022-11-29T01:06:38.358Z,2.63
2022-11-29T01:09:06.519Z,2.63
2022-11-29T01:11:34.824Z,2.68
2022-11-29T01:14:04.759Z,2.70
2022-11-29T01:16:33.766Z,2.53
2022-11-29T01:19:02.572Z,2.56
2022-11-29T01:21:31.349Z,2.57
2022-11-29T01:24:01.501Z,2.69
2022-11-29T01:26:31.066Z,2.62
2022-11-29T01:28:59.805Z,2.53
2022-11-29T01:31:32.218Z,2.54
2022-11-29T01:34:03.004Z,2.53
2022-11-29T01:36:31.541Z,2.59
2022-11-29T01:39:00.632Z,2.57
2022-11-29T01:41:31.171Z,2.75
2022-11-29T01:44:02.742Z,2.62
2022-11-29T01:46:34.555Z,2.70
2022-11-29T01:49:09.262Z,2.56
2022-11-29T01:51:43.003Z,2.76
2022-11-29T01:54:13.220Z,2.65
2022-11-29T01:56:44.510Z,2.45
2022-11-29T01:59:16.123Z,2.50
2022-11-29T02:01:45.757Z,2.54
2022-11-29T02:04:14.767Z,2.59
2022-11-29T02:06:44.095Z,2.48
2022-11-29T02:09:20.463Z,2.40
2022-11-29T02:12:05.812Z,2.60
2022-11-29T02:14:53.819Z,2.61
2022-11-29T02:17:34.097Z,2.51
2022-11-29T02:20:43.524Z,2.64
2022-11-29T02:23:33.607Z,2.48
2022-11-29T02:26:19.395Z,2.64
2022-11-29T02:29:16.937Z,2.45
2022-11-29T02:32:08.210Z,2.63
2022-11-29T02:34:54.296Z,2.85
2022-11-29T02:37:50.500Z,2.57
2022-11-29T02:40:46.281Z,2.57
2022-11-29T02:43:52.575Z,2.51
2022-11-29T02:46:41.412Z,2.42
2022-11-29T02:49:20.432Z,2.61
2022-11-29T02:51:57.804Z,2.62
2022-11-29T02:54:30.973Z,2.74
2022-11-29T02:57:05.118Z,2.73
2022-11-29T02:59:44.155Z,2.65
2022-11-29T03:02:23.362Z,2.64
2022-11-29T03:04:58.338Z,2.56
2022-11-29T03:07:38.343Z,2.54
2022-11-29T03:10:13.162Z,2.60
2022-11-29T03:12:43.935Z,2.50
2022-11-29T03:15:26.395Z,2.44
2022-11-29T03:18:14.907Z,2.44
2022-11-29T03:20:56.539Z,2.51
2022-11-29T03:23:32.520Z,2.53
2022-11-29T03:26:07.410Z,2.70
2022-11-29T03:28:42.290Z,2.43
2022-11-29T03:31:15.225Z,2.60
2022-11-29T03:33:52.539Z,2.47
2022-11-29T03:36:30.555Z,2.54
2022-11-29T03:39:06.176Z,2.58
2022-11-29T03:41:42.556Z,2.45
2022-11-29T03:44:16.785Z,2.40
2022-11-29T03:46:51.693Z,2.45
2022-11-29T03:49:26.671Z,2.60
2022-11-29T03:52:03.886Z,2.42
2022-11-29T03:54:43.475Z,2.41
2022-11-29T03:57:14.931Z,2.33
2022-11-29T03:59:57.227Z,2.32
2022-11-29T04:03:02.993Z,2.30
2022-11-29T04:05:48.512Z,2.16
2022-11-29T04:08:43.895Z,2.17
2022-11-29T04:11:55.628Z,2.29
2022-11-29T04:14:34.694Z,2.10
2022-11-29T04:17:48.829Z,2.16
2022-11-29T04:20:48.226Z,2.11
2022-11-29T04:23:56.816Z,2.17
2022-11-29T04:26:53.609Z,2.12
2022-11-29T04:29:45.026Z,2.25
2022-11-29T04:32:34.154Z,2.18
2022-11-29T04:35:45.180Z,2.13
2022-11-29T04:38:40.890Z,2.24
2022-11-29T04:41:41.906Z,2.34
2022-11-29T04:44:28.359Z,2.29
2022-11-29T04:47:17.167Z,2.18
2022-11-29T04:50:04.459Z,2.33
2022-11-29T04:52:43.875Z,2.24
2022-11-29T04:55:30.493Z,2.19
2022-11-29T04:58:06.496Z,2.21
2022-11-29T05:00:42.992Z,2.17
2022-11-29T05:03:17.558Z,2.11
2022-11-29T05:05:52.584Z,2.04
2022-11-29T05:08:28.460Z,2.15
2022-11-29T05:11:04.780Z,2.20
2022-11-29T05:13:46.157Z,2.13
2022-11-29T05:16:34.586Z,2.20
2022-11-29T05:19:25.571Z,2.16
2022-11-29T05:22:03.267Z,2.21
2022-11-29T05:24:47.301Z,2.07
2022-11-29T05:27:24.133Z,2.15
2022-11-29T05:29:58.328Z,2.04
2022-11-29T05:32:36.729Z,2.06
2022-11-29T05:35:33.904Z,1.91
2022-11-29T05:38:12.359Z,2.21
2022-11-29T05:40:47.426Z,2.10
2022-11-29T05:43:31.400Z,2.05
2022-11-29T05:46:06.026Z,2.04
2022-11-29T05:48:45.250Z,2.07
2022-11-29T05:51:22.342Z,2.03
2022-11-29T05:53:59.363Z,2.06
2022-11-29T05:56:43.218Z,1.95
2022-11-29T05:59:16.315Z,2.03
2022-11-29T06:01:53.334Z,2.00
2022-11-29T06:04:28.775Z,2.03
2022-11-29T06:07:04.831Z,1.99
2022-11-29T06:09:38.165Z,2.08
2022-11-29T06:12:18.171Z,2.06
2022-11-29T06:15:07.203Z,1.95
2022-11-29T06:17:48.743Z,2.13
2022-11-29T06:20:32.310Z,2.04
2022-11-29T06:23:16.222Z,2.11
2022-11-29T06:26:03.519Z,2.07
2022-11-29T06:28:50.605Z,2.04
2022-11-29T06:31:24.620Z,2.10
2022-11-29T06:34:02.625Z,1.98
2022-11-29T06:36:41.080Z,1.99
2022-11-29T06:39:10.807Z,2.11
2022-11-29T06:41:39.087Z,2.03
2022-11-29T06:44:08.219Z,2.00
2022-11-29T06:46:46.504Z,2.12
2022-11-29T06:49:23.287Z,2.08
2022-11-29T06:52:05.028Z,2.10
2022-11-29T06:54:49.524Z,2.15
2022-11-29T06:57:25.722Z,2.16
2022-11-29T07:00:04.474Z,2.19
2022-11-29T07:02:51.175Z,2.21
2022-11-29T07:05:25.183Z,2.16
2022-11-29T07:07:57.570Z,2.22
2022-11-29T07:10:27.867Z,2.19
2022-11-29T07:12:56.574Z,2.29
2022-11-29T07:15:25.476Z,2.26
2022-11-29T07:18:10.044Z,2.18
2022-11-29T07:20:50.236Z,2.26
2022-11-29T07:23:33.661Z,2.37
2022-11-29T07:26:10.544Z,2.35
2022-11-29T07:28:48.370Z,2.39
2022-11-29T07:31:25.150Z,2.23
2022-11-29T07:33:59.780Z,2.29
2022-11-29T07:36:35.104Z,2.19
2022-11-29T07:39:20.019Z,2.20
2022-11-29T07:41:57.771Z,2.34
2022-11-29T07:44:35.126Z,2.31
2022-11-29T07:47:03.397Z,2.31
2022-11-29T07:49:31.746Z,2.48
2022-11-29T07:51:59.922Z,2.30
2022-11-29T07:54:29.651Z,2.37
2022-11-29T07:56:57.797Z,2.52
2022-11-29T07:59:25.920Z,2.42
2022-11-29T08:01:54.181Z,2.42
2022-11-29T08:04:22.375Z,2.49
2022-11-29T08:06:50.503Z,2.40
2022-11-29T08:09:19.156Z,2.41
2022-11-29T08:11:48.865Z,2.48
2022-11-29T08:14:16.996Z,2.47
2022-11-29T08:16:45.228Z,2.54
2022-11-29T08:19:13.416Z,2.57
2022-11-29T08:21:44.204Z,2.56
2022-11-29T08:24:12.726Z,2.56
2022-11-29T08:26:41.013Z,2.65
2022-11-29T08:29:10.523Z,2.55
2022-11-29T08:31:38.945Z,2.55
2022-11-29T08:34:07.930Z,2.67
2022-11-29T08:36:36.060Z,2.75
2022-11-29T08:39:09.347Z,2.75
2022-11-29T08:41:37.804Z,2.73
2022-11-29T08:44:06.539Z,2.65
2022-11-29T08:46:54.411Z,2.75
2022-11-29T08:49:22.612Z,2.74
2022-11-29T08:51:52.311Z,2.70
2022-11-29T08:54:19.471Z,2.63
2022-11-29T08:57:31.072Z,2.65
2022-11-29T08:59:35.797Z,2.84
2022-11-29T09:02:05.326Z,2.77
2022-11-29T09:04:33.458Z,2.74
2022-11-29T09:07:01.625Z,2.71
2022-11-29T09:09:29.741Z,2.84
2022-11-29T09:11:57.831Z,2.91
2022-11-29T09:14:26.125Z,3.01
2022-11-29T09:16:54.311Z,2.89
2022-11-29T09:19:23.822Z,2.89
2022-11-29T09:21:51.959Z,2.86
2022-11-29T09:24:20.612Z,2.80
2022-11-29T09:26:48.819Z,3.06
2022-11-29T09:29:18.377Z,2.95
2022-11-29T09:31:46.703Z,3.05
2022-11-29T09:34:15.101Z,2.91
2022-11-29T09:36:44.991Z,3.13
2022-11-29T09:39:13.322Z,2.96
2022-11-29T09:42:04.996Z,2.95
2022-11-29T09:44:41.856Z,2.96
2022-11-29T09:47:26.765Z,3.08
2022-11-29T09:50:02.047Z,3.01
2022-11-29T09:52:48.379Z,3.03
2022-11-29T09:55:38.755Z,3.16
2022-11-29T09:58:10.859Z,3.33
2022-11-29T10:00:45.502Z,3.31
2022-11-29T10:03:21.397Z,3.11
2022-11-29T10:05:54.666Z,3.17
2022-11-29T10:08:29.610Z,3.20
2022-11-29T10:11:07.713Z,3.09
2022-11-29T10:13:38.128Z,3.25
2022-11-29T10:16:15.109Z,3.47
2022-11-29T10:18:49.664Z,3.27
2022-11-29T10:21:21.535Z,3.42
2022-11-29T10:23:55.117Z,3.25
2022-11-29T10:26:25.885Z,3.49
2022-11-29T10:28:57.953Z,3.60
2022-11-29T10:31:28.678Z,3.44
2022-11-29T10:33:58.546Z,3.51
2022-11-29T10:36:30.835Z,3.61
2022-11-29T10:39:04.113Z,3.63
2022-11-29T10:41:33.011Z,3.58
2022-11-29T10:44:02.215Z,3.38
2022-11-29T10:46:33.107Z,3.42
2022-11-29T10:49:05.748Z,3.57
2022-11-29T10:51:35.068Z,3.43
2022-11-29T10:54:21.341Z,3.74
2022-11-29T10:56:49.663Z,3.66
2022-11-29T10:59:22.839Z,3.70
2022-11-29T11:01:51.787Z,3.73
2022-11-29T11:04:29.508Z,3.71
2022-11-29T11:07:01.263Z,3.61
2022-11-29T11:09:36.437Z,3.69
2022-11-29T11:12:08.557Z,3.68
2022-11-29T11:14:38.797Z,3.70
2022-11-29T11:17:22.413Z,3.77
2022-11-29T11:19:58.863Z,3.83
2022-11-29T11:22:28.597Z,3.91
2022-11-29T11:25:06.887Z,3.74
2022-11-29T11:27:39.772Z,3.82
2022-11-29T11:30:19.390Z,3.85
2022-11-29T11:33:08.730Z,3.82
2022-11-29T11:35:37.308Z,3.74
2022-11-29T11:38:05.489Z,3.78
2022-11-29T11:40:35.088Z,3.75
2022-11-29T11:43:03.812Z,3.77
2022-11-29T11:45:35.530Z,3.74
2022-11-29T11:48:12.530Z,3.65
2022-11-29T11:50:45.772Z,3.71
2022-11-29T11:53:22.181Z,3.73
2022-11-29T11:56:00.558Z,3.71
2022-11-29T11:58:30.314Z,3.69
2022-11-29T12:01:04.715Z,3.71
2022-11-29T12:03:44.887Z,3.66
2022-11-29T12:06:26.241Z,3.77
2022-11-29T12:08:59.529Z,3.70
2022-11-29T12:11:35.795Z,3.75
2022-11-29T12:14:07.115Z,3.67
2022-11-29T12:16:40.245Z,3.82
2022-11-29T12:19:16.324Z,3.79
2022-11-29T12:21:48.407Z,3.84
2022-11-29T12:24:22.853Z,3.80
2022-11-29T12:26:57.900Z,3.84
2022-11-29T12:29:30.724Z,3.83
2022-11-29T12:32:12.670Z,3.81
2022-11-29T12:34:54.480Z,3.82
2022-11-29T12:37:31.043Z,3.72
2022-11-29T12:40:07.223Z,3.78
2022-11-29T12:42:47.271Z,3.67
2022-11-29T12:45:40.159Z,3.68
2022-11-29T12:48:21.456Z,3.82
2022-11-29T12:51:01.906Z,3.76
2022-11-29T12:53:45.273Z,3.75
2022-11-29T12:56:16.983Z,3.83
2022-11-29T12:59:13.470Z,3.69
2022-11-29T13:01:58.712Z,3.76
2022-11-29T13:04:36.261Z,3.80
2022-11-29T13:07:13.310Z,3.79
2022-11-29T13:09:57.008Z,3.83
2022-11-29T13:12:33.907Z,3.86
2022-11-29T13:15:07.951Z,3.86
2022-11-29T13:17:43.539Z,3.95
2022-11-29T13:20:30.699Z,3.79
2022-11-29T13:23:06.034Z,4.01
2022-11-29T13:25:38.844Z,3.91
2022-11-29T13:28:12.018Z,3.92
2022-11-29T13:30:41.898Z,4.07
2022-11-29T13:33:20.462Z,3.90
2022-11-29T13:35:57.471Z,3.95
2022-11-29T13:38:32.392Z,3.91
2022-11-29T13:41:10.923Z,3.85
2022-11-29T13:43:44.249Z,3.94
2022-11-29T13:46:23.855Z,4.00
2022-11-29T13:48:54.113Z,3.76
2022-11-29T13:51:27.075Z,3.95
2022-11-29T13:53:57.138Z,3.88
2022-11-29T13:56:29.672Z,3.97
2022-11-29T13:58:58.975Z,3.82
2022-11-29T14:01:29.937Z,3.78
2022-11-29T14:04:31.422Z,3.97
2022-11-29T14:07:05.665Z,3.94
2022-11-29T14:09:44.343Z,3.93
2022-11-29T14:12:39.764Z,3.92
2022-11-29T14:15:23.106Z,3.96
2022-11-29T14:17:55.443Z,3.84
2022-11-29T14:20:57.787Z,3.70
2022-11-29T14:23:37.957Z,3.69
2022-11-29T14:26:28.808Z,3.68
2022-11-29T14:28:58.698Z,3.72
2022-11-29T14:31:53.013Z,3.72
2022-11-29T14:34:37.524Z,3.59
2022-11-29T14:37:18.327Z,3.50
2022-11-29T14:39:50.316Z,3.51
2022-11-29T14:42:20.395Z,3.58
2022-11-29T14:44:52.111Z,3.46
2022-11-29T14:47:29.920Z,3.54
2022-11-29T14:50:03.778Z,3.54
2022-11-29T14:52:35.961Z,3.53
2022-11-29T14:55:09.648Z,3.52
2022-11-29T14:58:14.786Z,3.50
2022-11-29T15:01:02.701Z,3.37
2022-11-29T15:03:37.559Z,3.40
2022-11-29T15:06:14.568Z,3.36
2022-11-29T15:08:52.503Z,3.41
2022-11-29T15:11:33.622Z,3.34
2022-11-29T15:14:05.725Z,3.40
2022-11-29T15:16:51.693Z,3.30
2022-11-29T15:19:53.711Z,3.33
2022-11-29T15:22:27.601Z,3.35
2022-11-29T15:24:58.895Z,3.40
2022-11-29T15:27:27.815Z,3.30
2022-11-29T15:29:56.014Z,3.35
2022-11-29T15:32:26.303Z,3.28
2022-11-29T15:34:56.143Z,3.29
2022-11-29T15:37:40.771Z,3.37
2022-11-29T15:40:14.073Z,3.36
2022-11-29T15:42:44.789Z,3.29
2022-11-29T15:45:27.698Z,3.38
2022-11-29T15:47:56.133Z,3.38
2022-11-29T15:50:26.693Z,3.32
2022-11-29T15:53:01.316Z,3.34
2022-11-29T15:55:30.510Z,3.40
2022-11-29T15:58:05.515Z,3.27
2022-11-29T16:00:37.308Z,3.27
2022-11-29T16:03:08.575Z,3.44
2022-11-29T16:05:38.704Z,3.36
2022-11-29T16:08:15.049Z,3.40
2022-11-29T16:10:47.447Z,3.38
2022-11-29T16:13:32.570Z,3.28
2022-11-29T16:16:07.579Z,3.30
2022-11-29T16:18:37.180Z,3.23
2022-11-29T16:21:07.515Z,3.27
2022-11-29T16:23:38.348Z,3.22
2022-11-29T16:26:14.767Z,3.15
2022-11-29T16:28:45.402Z,3.22
2022-11-29T16:31:18.155Z,3.36
2022-11-29T16:33:48.962Z,3.32
2022-11-29T16:36:20.752Z,3.24
2022-11-29T16:38:52.912Z,3.19
2022-11-29T16:41:31.240Z,3.30
2022-11-29T16:44:00.177Z,3.28
2022-11-29T16:46:33.872Z,3.21
2022-11-29T16:49:04.812Z,3.25
2022-11-29T16:51:39.791Z,3.20
2022-11-29T16:54:24.628Z,3.22
2022-11-29T16:56:54.245Z,3.37
2022-11-29T16:59:26.910Z,3.41
2022-11-29T17:01:56.628Z,3.28
2022-11-29T17:04:25.482Z,3.13
2022-11-29T17:06:54.968Z,3.25
2022-11-29T17:09:26.689Z,3.22
2022-11-29T17:11:55.497Z,3.37
2022-11-29T17:14:23.751Z,3.23
2022-11-29T17:16:52.331Z,3.30
2022-11-29T17:19:25.467Z,3.17
2022-11-29T17:21:53.665Z,3.26
2022-11-29T17:24:23.405Z,3.22
2022-11-29T17:26:52.948Z,3.16
2022-11-29T17:29:21.457Z,3.24
2022-11-29T17:31:50.543Z,3.32
2022-11-29T17:34:18.887Z,3.28
2022-11-29T17:36:47.192Z,3.37
2022-11-29T17:39:19.957Z,3.37
2022-11-29T17:41:48.411Z,3.42
2022-11-29T17:44:18.147Z,3.32
2022-11-29T17:46:46.373Z,3.27
2022-11-29T17:49:14.482Z,3.22
2022-11-29T17:51:52.781Z,3.18
2022-11-29T17:54:22.168Z,3.28
2022-11-29T17:56:50.586Z,3.24
2022-11-29T17:59:20.451Z,3.17
2022-11-29T18:01:48.845Z,3.17
2022-11-29T18:04:17.052Z,3.19
2022-11-29T18:06:49.673Z,3.25
2022-11-29T18:09:19.801Z,3.24
2022-11-29T18:11:50.297Z,3.10
2022-11-29T18:14:22.883Z,3.22
2022-11-29T18:16:51.624Z,2.99
2022-11-29T18:19:22.208Z,3.16
2022-11-29T18:21:50.978Z,3.16
2022-11-29T18:24:19.774Z,3.15
2022-11-29T18:26:48.174Z,3.15
2022-11-29T18:29:16.376Z,3.04
2022-11-29T18:31:46.969Z,3.05
2022-11-29T18:34:15.851Z,2.94
2022-11-29T18:36:45.952Z,2.99
2022-11-29T18:39:16.132Z,2.99
2022-11-29T18:41:48.065Z,3.09
2022-11-29T18:44:18.908Z,2.92
2022-11-29T18:46:48.906Z,3.01
2022-11-29T18:49:18.413Z,2.94
2022-11-29T18:51:48.602Z,3.14
2022-11-29T18:54:18.372Z,3.02
2022-11-29T18:56:46.746Z,3.10
2022-11-29T18:59:17.634Z,2.98
2022-11-29T19:01:49.084Z,2.95
2022-11-29T19:04:19.235Z,2.98
2022-11-29T19:06:48.460Z,3.06
2022-11-29T19:09:19.236Z,2.90
2022-11-29T19:11:48.664Z,2.97
2022-11-29T19:14:16.938Z,2.91
2022-11-29T19:16:48.895Z,2.92
2022-11-29T19:19:18.620Z,3.03
2022-11-29T19:21:47.202Z,2.90
2022-11-29T19:24:17.832Z,2.89
2022-11-29T19:26:48.960Z,2.89
2022-11-29T19:29:17.567Z,2.99
2022-11-29T19:31:46.037Z,2.85
2022-11-29T19:34:15.546Z,2.96
2022-11-29T19:36:45.515Z,2.88
2022-11-29T19:39:15.952Z,2.84
2022-11-29T19:41:45.543Z,2.73
2022-11-29T19:44:14.253Z,2.98
2022-11-29T19:46:44.015Z,2.90
2022-11-29T19:49:12.853Z,2.86
2022-11-29T19:51:42.657Z,2.85
2022-11-29T19:54:11.927Z,2.87
2022-11-29T19:56:40.697Z,2.84
2022-11-29T19:59:09.347Z,2.89
2022-11-29T20:01:41.393Z,2.99
2022-11-29T20:04:12.244Z,2.88
2022-11-29T20:06:44.302Z,2.87
2022-11-29T20:09:14.433Z,2.87
2022-11-29T20:11:42.688Z,2.81
2022-11-29T20:14:12.192Z,2.83
2022-11-29T20:16:40.348Z,2.90
2022-11-29T20:19:11.672Z,2.97
2022-11-29T20:21:47.716Z,2.94
2022-11-29T20:24:17.349Z,2.85
2022-11-29T20:26:47.958Z,2.78
2022-11-29T20:29:16.480Z,2.80
2022-11-29T20:31:50.127Z,2.79
2022-11-29T20:34:20.013Z,2.86
2022-11-29T20:37:09.263Z,2.73
2022-11-29T20:39:43.977Z,2.82
2022-11-29T20:42:47.310Z,2.87
2022-11-29T20:45:17.103Z,2.74
2022-11-29T20:47:53.946Z,2.83
2022-11-29T20:50:24.286Z,2.82
2022-11-29T20:53:13.080Z,2.72
2022-11-29T20:55:46.436Z,2.69
2022-11-29T20:58:16.334Z,2.82
2022-11-29T21:00:44.677Z,2.77
2022-11-29T21:03:14.513Z,2.79
2022-11-29T21:05:43.317Z,2.71
2022-11-29T21:08:13.938Z,2.81
2022-11-29T21:10:42.499Z,2.79
2022-11-29T21:13:12.604Z,2.77
2022-11-29T21:15:41.614Z,2.83
2022-11-29T21:18:20.201Z,2.73
2022-11-29T21:20:56.616Z,2.81
2022-11-29T21:23:39.000Z,2.68
2022-11-29T21:26:14.569Z,2.80
2022-11-29T21:28:50.147Z,2.66
2022-11-29T21:31:19.097Z,2.87
2022-11-29T21:33:47.919Z,2.71
2022-11-29T21:36:16.288Z,2.79
2022-11-29T21:38:50.889Z,2.89
2022-11-29T21:41:22.352Z,2.79
2022-11-29T21:44:05.910Z,2.85
2022-11-29T21:46:35.561Z,2.90
2022-11-29T21:49:03.754Z,2.85
2022-11-29T21:51:31.887Z,2.79
2022-11-29T21:54:02.128Z,2.78
2022-11-29T21:56:30.275Z,2.78
2022-11-29T21:58:58.525Z,2.92
2022-11-29T22:01:30.020Z,2.95
2022-11-29T22:03:58.698Z,2.87
2022-11-29T22:06:28.252Z,2.83
2022-11-29T22:08:56.384Z,2.81
2022-11-29T22:11:31.873Z,2.90
2022-11-29T22:14:18.126Z,2.69
2022-11-29T22:16:48.964Z,2.73
2022-11-29T22:19:19.059Z,2.80
2022-11-29T22:21:49.524Z,2.90
2022-11-29T22:24:19.530Z,2.93
2022-11-29T22:26:49.621Z,2.88
2022-11-29T22:29:18.183Z,2.68
2022-11-29T22:31:48.394Z,2.75
2022-11-29T22:34:16.879Z,2.83
2022-11-29T22:36:45.045Z,2.79
2022-11-29T22:39:13.258Z,2.79
2022-11-29T22:41:42.279Z,2.80
2022-11-29T22:44:11.752Z,2.74
2022-11-29T22:46:41.108Z,2.74
2022-11-29T22:49:09.689Z,2.98
2022-11-29T22:51:39.253Z,2.82
2022-11-29T22:54:08.916Z,2.83
2022-11-29T22:56:39.283Z,2.80
2022-11-29T22:59:07.678Z,2.94
2022-11-29T23:01:39.110Z,2.89
2022-11-29T23:04:11.872Z,2.95
2022-11-29T23:06:42.855Z,2.89
2022-11-29T23:09:15.761Z,2.75
2022-11-29T23:11:45.234Z,2.83
2022-11-29T23:14:13.981Z,2.92
2022-11-29T23:16:43.551Z,2.88
2022-11-29T23:19:11.803Z,2.91
2022-11-29T23:21:41.490Z,2.79
2022-11-29T23:24:10.154Z,2.84
2022-11-29T23:26:40.263Z,2.73
2022-11-29T23:29:10.161Z,2.74
2022-11-29T23:31:38.539Z,2.68
2022-11-29T23:34:08.281Z,2.74
2022-11-29T23:36:36.554Z,2.75
2022-11-29T23:39:06.505Z,2.76
2022-11-29T23:41:35.230Z,2.62
2022-11-29T23:44:04.490Z,2.60
2022-11-29T23:46:33.436Z,2.65
2022-11-29T23:49:01.608Z,2.57
2022-11-29T23:51:31.102Z,2.75
2022-11-29T23:53:59.267Z,2.63
2022-11-29T23:56:30.735Z,2.62
2022-11-29T23:58:58.857Z,2.73
